首页
METAR-TAF:

METAR-TAF

机场 :

罗兹, 波兰

纬度: 51-43-19N, 经度: 019-23-53E, 海拔: 184米

当前天气观测

该预报发布于28分钟前的18:00 UTC
风速1节,风向多变
温度 13°C
湿度 30%
气压 1013 hPa
能见度10公里或以上
1500米以下无云,无积雨云

METAR: EPLL 281800Z VRB01KT CAVOK 13/M04 Q1013

时间: 19:28 (18:28 UTC)

预报

该预报发布于58分钟前的17:30 UTC
预报有效从28日的 18点(UTC)到 29日的 18点(UTC)
风速2节,风向多变
能见度10公里或以上
1500米以下无云,无积雨云
几率 30% :
短暂存在
从 29日的 01点(UTC)到 29日的 06点(UTC)
能見度: 3000
轻雾
成为
从 29日的 06点(UTC)到 29日的 08点(UTC)
风速13节,风向
短暂存在
从 29日的 09点(UTC)到 29日的 18点(UTC)
风速17节,风向,有时为32节阵风
几率 40% :
短暂存在
从 29日的 12点(UTC)到 29日的 17点(UTC)
多云层高于1000英尺
多云层高于1500英尺, 积雨云.
阵雨
几率 40% :
短暂存在
从 29日的 17点(UTC)到 29日的 18点(UTC)
多云层高于500英尺
多云层高于1200英尺, 积雨云.
阵雨, 雪

TAF: EPLL 281730Z 2818/2918 VRB02KT CAVOK PROB30 TEMPO 2901/2906 3000 BR BECMG 2906/2908 35013KT TEMPO 2909/2918 01017G32KT PROB40 TEMPO 2912/2917 SHRA BKN010 BKN015CB PROB40 TEMPO 2917/2918 SHRASN BKN005 BKN012CB

超过4000个机场的气象观测和天气预报(METAR&TAF报告)。

可查询的气象台以黄色和红色小点在地图上表示。

将鼠标移到小点上方,可查看气象台名称。

然后点击查看天气观测和预报。

如需切换地图:点击带黑十字的绿色按钮放大地图;点击带横线的绿色按钮缩小地图;或者点击绿色箭头查看邻近地区的地图。


METAR-TAF: